This is the latest recevied weather packets stored in our database for station/object KF7SOJ. If no packets are shown the sender has not sent any weather packets the latest 10 day(s).
| Time | Temp. | Humidity | Pressure | Rain* | Wind** | Luminosity | Snow |
|---|---|---|---|---|---|---|---|
| 1777979195 | 1.67° C | 65% | 933.2 hPa | 0 mm | - | 0 W/m² | - |
| 1777978893 | 1.67° C | 65% | 933.1 hPa | 0 mm | - | 0 W/m² | - |
| 1777978589 | 1.67° C | 65% | 933.1 hPa | 0 mm | - | 0 W/m² | - |
| 1777978285 | 1.67° C | 66% | 933.2 hPa | 0 mm | - | 0 W/m² | - |
| 1777977982 | 1.67° C | 66% | 933.2 hPa | 0 mm | - | 0 W/m² | - |
| 1777977680 | 2.22° C | 65% | 933.2 hPa | 0 mm | - | 0 W/m² | - |
| 1777977376 | 2.22° C | 65% | 933.3 hPa | 0 mm | - | 0 W/m² | - |
| 1777977073 | 1.67° C | 65% | 933.3 hPa | 0 mm | - | 0 W/m² | - |
| 1777976771 | 2.22° C | 64% | 933.6 hPa | 0 mm | - | 0 W/m² | - |
| 1777976468 | 2.22° C | 65% | 933.3 hPa | 0 mm | - | 0 W/m² | - |
| 1777976167 | 1.67° C | 65% | 933.5 hPa | 0 mm | - | 0 W/m² | - |
| 1777975862 | 1.67° C | 65% | 933.4 hPa | 0 mm | - | 0 W/m² | - |
| 1777975559 | 1.67° C | 65% | 933.4 hPa | 0 mm | - | 0 W/m² | - |
| 1777975256 | 1.67° C | 66% | 933.4 hPa | 0 mm | - | 0 W/m² | - |
| 1777974952 | 1.11° C | 67% | 933.5 hPa | 0 mm | - | 0 W/m² | - |
| 1777974649 | 1.11° C | 68% | 933.6 hPa | 0 mm | - | 0 W/m² | - |
| 1777974345 | 1.11° C | 68% | 933.7 hPa | 0 mm | - | 0 W/m² | - |
| 1777974042 | 1.11° C | 68% | 933.6 hPa | 0 mm | - | 0 W/m² | - |
| 1777973738 | 1.11° C | 66% | 933.6 hPa | 0 mm | - | 0 W/m² | - |
| 1777973436 | 1.67° C | 66% | 933.6 hPa | 0 mm | - | 0 W/m² | - |
| 1777973133 | 1.67° C | 66% | 933.6 hPa | 0 mm | - | 0 W/m² | - |
| 1777972831 | 1.11° C | 68% | 933.5 hPa | 0 mm | - | 0 W/m² | - |
| 1777972528 | 1.11° C | 68% | 933.4 hPa | 0 mm | - | 0 W/m² | - |
| 1777972226 | 0.56° C | 68% | 933.7 hPa | 0 mm | - | 0 W/m² | - |
| 1777971924 | 1.67° C | 65% | 933.5 hPa | 0 mm | - | 0 W/m² | - |
* Rain latest hour (hover to see other rain measurements)
** Current wind speed in m/s (hover to see current wind gust speed)